Hallock, MN

9:54 AM CST on December 21, 2014 (GMT -0600)
Hallock Municipal | Change Station
CLOSE
Current Station
Airport
Location: Hallock,
Elevation: 820 ft
Nearby Weather Stations
Active Advisory: Special Statement

Elev 820 ft 48.75 °N, 96.94 °W | Updated 19 minutes ago

Fog
Fog
30 °F
Feels Like 30 °F
N
0
Wind Variable Wind from North

Today
High -- | Low -- °F
--% Chance of Precip.
Yesterday
High -- | Low -- °F
Precip. -- in
8:18 AM 4:33 PM
Waning Crescent, 0% visible
Pressure 29.67 in
Visibility 2.0 miles
Clouds Overcast 400 ft
Dew Point 30 °F
Humidity 100%
Rainfall 0.02 in
Snow Depth Not available.
UV 0 out of 12
Pollen .10 out of 12
Air Quality Not available.
Flu Activity Not available.
METAR KHCO 211535Z AUTO 00000KT 2SM BR OVC004 M01/M01 A2967 RMK AO2

More Conditions Fewer Conditions

Pressure 29.67 in
Visibility 2.0 miles
Clouds Overcast 400 ft
Dew Point 30 °F
Humidity 100%
Rainfall 0.02 in
Snow Depth Not available.
UV 0 out of 12
Pollen .10 out of 12
Air Quality Not available.
Flu Activity Not available.
METAR KHCO 211535Z AUTO 00000KT 2SM BR OVC004 M01/M01 A2967 RMK AO2

More Conditions Fewer Conditions

10-Day Weather Forecast

Almanac

Astronomy

Dec. 21, 2014 Rise Set
Actual Time
Civil Twilight
Nautical Twilight
Astronomical Twilight
Moon
Length of Visible Light
Length of Day
Tomorrow will be .
, % of the Moon is Illuminated

Today's Extremes

State Highs State Lows

Community

WunderPhotos

Upload Photos

1,779,412 photos uploaded!

WunderBlogs® & News

Nearby

Air Quality

  Air Quality AQ Index Pollutant
Not available.

Snow Depth

Station Depth Elevation

Earthquake Activity

City Distance Mag. Time & Date
Minimum magnitude displayed is 2.5.

Coastal Water Temperatures

Place Temperature

Nearby Weather Stations